createdAt,value
2022-11-17T00:00:43.541Z,2.40
2022-11-17T00:03:15.772Z,2.00
2022-11-17T00:05:44.220Z,1.90
2022-11-17T00:08:12.225Z,2.40
2022-11-17T00:10:39.885Z,2.10
2022-11-17T00:13:26.711Z,1.90
2022-11-17T00:15:54.309Z,1.70
2022-11-17T00:18:38.122Z,2.00
2022-11-17T00:21:21.965Z,2.10
2022-11-17T00:23:50.536Z,2.00
2022-11-17T00:26:30.926Z,2.00
2022-11-17T00:29:04.489Z,2.00
2022-11-17T00:31:50.474Z,2.00
2022-11-17T00:34:23.142Z,1.90
2022-11-17T00:36:52.860Z,2.20
2022-11-17T00:39:23.014Z,2.00
2022-11-17T00:41:50.766Z,2.30
2022-11-17T00:44:18.582Z,2.40
2022-11-17T00:46:46.215Z,2.40
2022-11-17T00:49:14.553Z,2.30
2022-11-17T00:51:42.368Z,2.80
2022-11-17T00:54:12.032Z,2.50
2022-11-17T00:56:39.793Z,2.80
2022-11-17T00:59:07.504Z,2.40
2022-11-17T01:01:35.664Z,2.90
2022-11-17T01:04:04.478Z,2.40
2022-11-17T01:06:40.473Z,2.40
2022-11-17T01:09:15.889Z,2.30
2022-11-17T01:11:44.486Z,3.00
2022-11-17T01:14:15.925Z,2.40
2022-11-17T01:16:44.350Z,2.20
2022-11-17T01:19:14.019Z,2.60
2022-11-17T01:21:41.751Z,2.30
2022-11-17T01:24:11.546Z,2.30
2022-11-17T01:26:40.308Z,2.80
2022-11-17T01:29:10.798Z,2.70
2022-11-17T01:31:41.364Z,2.50
2022-11-17T01:34:09.220Z,1.80
2022-11-17T01:36:54.480Z,2.20
2022-11-17T01:39:24.467Z,2.40
2022-11-17T01:41:53.381Z,2.50
2022-11-17T01:44:50.209Z,2.10
2022-11-17T01:47:24.022Z,2.60
2022-11-17T01:49:56.398Z,2.50
2022-11-17T01:52:25.384Z,2.40
2022-11-17T01:54:55.386Z,2.30
2022-11-17T01:57:34.939Z,2.30
2022-11-17T02:00:07.216Z,2.10
2022-11-17T02:02:37.038Z,2.10
2022-11-17T02:05:30.310Z,2.20
2022-11-17T02:08:01.826Z,2.30
2022-11-17T02:10:32.094Z,2.10
2022-11-17T02:13:01.537Z,2.10
2022-11-17T02:15:30.275Z,2.10
2022-11-17T02:17:59.535Z,1.80
2022-11-17T02:20:41.497Z,2.00
2022-11-17T02:23:41.098Z,2.20
2022-11-17T02:26:40.567Z,1.90
2022-11-17T02:29:25.666Z,2.40
2022-11-17T02:32:00.719Z,1.90
2022-11-17T02:34:34.749Z,2.50
2022-11-17T02:37:34.282Z,2.10
2022-11-17T02:40:20.707Z,2.10
2022-11-17T02:43:18.130Z,2.10
2022-11-17T02:45:56.531Z,2.20
2022-11-17T02:48:44.918Z,2.30
2022-11-17T02:51:20.053Z,2.00
2022-11-17T02:53:50.027Z,1.70
2022-11-17T02:56:17.638Z,2.30
2022-11-17T02:58:48.347Z,1.90
2022-11-17T03:01:22.071Z,2.00
2022-11-17T03:04:20.574Z,2.30
2022-11-17T03:07:11.820Z,2.10
2022-11-17T03:09:55.385Z,2.30
2022-11-17T03:12:38.887Z,2.20
2022-11-17T03:15:22.424Z,2.10
2022-11-17T03:18:21.938Z,2.30
2022-11-17T03:21:09.641Z,2.20
2022-11-17T03:24:00.307Z,2.40
2022-11-17T03:26:34.352Z,2.20
2022-11-17T03:29:05.300Z,2.70
2022-11-17T03:31:35.207Z,2.40
2022-11-17T03:34:07.180Z,2.50
2022-11-17T03:36:39.659Z,2.80
2022-11-17T03:39:14.585Z,2.50
2022-11-17T03:41:47.075Z,2.60
2022-11-17T03:44:18.298Z,2.30
2022-11-17T03:46:49.024Z,2.50
2022-11-17T03:49:35.282Z,2.40
2022-11-17T03:52:04.025Z,2.60
2022-11-17T03:54:32.495Z,1.80
2022-11-17T03:57:02.747Z,2.80
2022-11-17T03:59:43.067Z,2.80
2022-11-17T04:02:18.418Z,2.20
2022-11-17T04:05:02.453Z,2.50
2022-11-17T04:07:30.145Z,2.80
2022-11-17T04:09:57.811Z,3.20
2022-11-17T04:12:41.412Z,3.20
2022-11-17T04:15:26.572Z,2.80
2022-11-17T04:17:55.195Z,2.90
2022-11-17T04:20:23.337Z,3.00
2022-11-17T04:23:07.084Z,3.00
2022-11-17T04:26:06.578Z,2.40
2022-11-17T04:28:39.583Z,2.50
2022-11-17T04:31:14.729Z,2.80
2022-11-17T04:33:45.259Z,3.10
2022-11-17T04:36:14.959Z,3.00
2022-11-17T04:38:50.544Z,3.30
2022-11-17T04:41:35.657Z,3.20
2022-11-17T04:44:04.867Z,3.70
2022-11-17T04:46:34.875Z,3.60
2022-11-17T04:49:04.425Z,2.90
2022-11-17T04:51:34.780Z,3.20
2022-11-17T04:54:05.047Z,2.70
2022-11-17T04:56:32.777Z,3.60
2022-11-17T04:59:00.430Z,2.90
2022-11-17T05:01:28.614Z,2.60
2022-11-17T05:04:01.803Z,2.80
2022-11-17T05:06:34.198Z,2.90
2022-11-17T05:09:07.677Z,3.00
2022-11-17T05:11:51.614Z,3.30
2022-11-17T05:14:21.995Z,3.30
2022-11-17T05:17:13.348Z,3.30
2022-11-17T05:19:46.575Z,3.50
2022-11-17T05:22:38.275Z,2.90
2022-11-17T05:25:06.944Z,3.20
2022-11-17T05:27:34.914Z,3.20
2022-11-17T05:30:05.388Z,3.10
2022-11-17T05:32:32.952Z,3.30
2022-11-17T05:35:00.549Z,3.30
2022-11-17T05:37:28.283Z,3.50
2022-11-17T05:39:55.875Z,3.20
2022-11-17T05:42:23.462Z,3.40
2022-11-17T05:44:51.097Z,3.60
2022-11-17T05:47:18.699Z,3.30
2022-11-17T05:49:46.284Z,3.20
2022-11-17T05:52:13.945Z,3.30
2022-11-17T05:54:41.532Z,3.00
2022-11-17T05:57:16.769Z,2.90
2022-11-17T05:59:50.468Z,3.10
2022-11-17T06:02:29.265Z,3.40
2022-11-17T06:04:56.876Z,2.70
2022-11-17T06:07:24.600Z,2.90
2022-11-17T06:09:53.211Z,3.00
2022-11-17T06:12:20.794Z,3.20
2022-11-17T06:14:48.381Z,3.00
2022-11-17T06:17:23.091Z,3.00
2022-11-17T06:20:02.895Z,3.10
2022-11-17T06:22:31.785Z,4.60
2022-11-17T06:25:00.820Z,14.30
2022-11-17T06:27:31.935Z,33.30
2022-11-17T06:30:03.560Z,42.50
2022-11-17T06:32:34.189Z,5.30
2022-11-17T06:35:04.519Z,3.70
2022-11-17T06:37:32.164Z,4.10
2022-11-17T06:40:02.752Z,2.80
2022-11-17T06:42:47.640Z,3.00
2022-11-17T06:45:18.575Z,3.00
2022-11-17T06:47:46.156Z,3.50
2022-11-17T06:50:14.857Z,4.40
2022-11-17T06:52:42.478Z,3.30
2022-11-17T06:55:10.062Z,3.80
2022-11-17T06:57:37.703Z,3.50
2022-11-17T07:00:06.280Z,5.10
2022-11-17T07:02:33.992Z,12.90
2022-11-17T07:05:04.947Z,3.90
2022-11-17T07:07:32.696Z,3.20
2022-11-17T07:10:00.514Z,3.40
2022-11-17T07:12:28.124Z,3.00
2022-11-17T07:14:55.681Z,3.50
2022-11-17T07:17:23.241Z,3.10
2022-11-17T07:19:50.793Z,2.90
2022-11-17T07:22:18.547Z,3.00
2022-11-17T07:24:46.119Z,4.70
2022-11-17T07:27:13.740Z,18.60
2022-11-17T07:29:41.450Z,16.70
2022-11-17T07:32:11.656Z,10.10
2022-11-17T07:34:40.171Z,3.70
2022-11-17T07:37:07.752Z,3.30
2022-11-17T07:39:35.350Z,3.60
2022-11-17T07:42:02.929Z,3.80
2022-11-17T07:44:31.190Z,5.00
2022-11-17T07:46:58.861Z,12.90
2022-11-17T07:49:27.836Z,9.40
2022-11-17T07:51:55.546Z,9.60
2022-11-17T07:54:23.178Z,7.50
2022-11-17T07:56:50.842Z,6.80
2022-11-17T07:59:21.480Z,4.30
2022-11-17T08:01:49.336Z,4.90
2022-11-17T08:04:22.423Z,4.90
2022-11-17T08:06:50.206Z,5.00
2022-11-17T08:09:17.814Z,6.10
2022-11-17T08:11:45.364Z,6.00
2022-11-17T08:14:14.302Z,5.90
2022-11-17T08:16:42.136Z,5.90
2022-11-17T08:19:17.018Z,7.20
2022-11-17T08:21:47.761Z,6.10
2022-11-17T08:24:16.301Z,5.40
2022-11-17T08:26:43.906Z,5.20
2022-11-17T08:29:11.477Z,6.90
2022-11-17T08:31:41.243Z,4.90
2022-11-17T08:34:08.853Z,5.90
2022-11-17T08:36:39.807Z,5.70
2022-11-17T08:39:07.504Z,12.10
2022-11-17T08:41:35.155Z,4.80
2022-11-17T08:44:04.956Z,4.20
2022-11-17T08:46:32.586Z,3.80
2022-11-17T08:49:01.108Z,4.00
2022-11-17T08:51:29.317Z,3.80
2022-11-17T08:53:59.519Z,3.70
2022-11-17T08:56:27.410Z,4.00
2022-11-17T08:58:55.358Z,4.60
2022-11-17T09:01:24.977Z,4.40
2022-11-17T09:03:52.519Z,3.90
2022-11-17T09:06:20.244Z,3.60
2022-11-17T09:08:48.755Z,3.60
2022-11-17T09:11:16.977Z,3.90
2022-11-17T09:13:46.668Z,3.90
2022-11-17T09:16:15.838Z,3.30
2022-11-17T09:18:44.319Z,4.20
2022-11-17T09:21:15.985Z,3.30
2022-11-17T09:23:43.714Z,3.40
2022-11-17T09:26:13.732Z,3.60
2022-11-17T09:28:42.566Z,3.50
2022-11-17T09:31:13.149Z,4.40
2022-11-17T09:33:41.154Z,4.30
2022-11-17T09:36:09.542Z,3.50
2022-11-17T09:38:38.435Z,3.30
2022-11-17T09:41:27.373Z,3.80
2022-11-17T09:44:25.758Z,3.60
2022-11-17T09:47:25.833Z,4.10
2022-11-17T09:49:58.754Z,7.10
2022-11-17T09:52:37.917Z,4.00
2022-11-17T09:55:08.581Z,4.50
2022-11-17T09:57:50.958Z,4.60
2022-11-17T10:00:22.851Z,4.60
2022-11-17T10:02:51.689Z,4.10
2022-11-17T10:05:35.465Z,4.00
2022-11-17T10:08:11.842Z,3.90
2022-11-17T10:10:45.926Z,4.40
2022-11-17T10:13:19.828Z,3.70
2022-11-17T10:15:50.872Z,3.80
2022-11-17T10:18:18.555Z,6.90
2022-11-17T10:20:46.326Z,5.60
2022-11-17T10:23:18.434Z,7.30
2022-11-17T10:25:49.392Z,7.10
2022-11-17T10:28:30.180Z,7.30
2022-11-17T10:31:10.498Z,9.10
2022-11-17T10:33:47.690Z,6.40
2022-11-17T10:36:19.963Z,4.30
2022-11-17T10:38:58.938Z,4.70
2022-11-17T10:41:39.039Z,4.40
2022-11-17T10:44:20.908Z,4.00
2022-11-17T10:47:01.985Z,3.80
2022-11-17T10:49:36.025Z,6.70
2022-11-17T10:52:16.599Z,4.20
2022-11-17T10:54:44.298Z,4.20
2022-11-17T10:57:20.137Z,3.60
2022-11-17T10:59:57.749Z,3.70
2022-11-17T11:02:36.080Z,3.90
2022-11-17T11:05:13.187Z,3.00
2022-11-17T11:07:41.680Z,3.80
2022-11-17T11:10:31.858Z,3.80
2022-11-17T11:13:45.768Z,4.40
2022-11-17T11:16:13.349Z,3.30
2022-11-17T11:18:40.978Z,7.40
2022-11-17T11:21:17.845Z,6.90
2022-11-17T11:23:48.332Z,15.60
2022-11-17T11:26:31.973Z,16.00
2022-11-17T11:29:17.944Z,9.10
2022-11-17T11:32:16.737Z,4.80
2022-11-17T11:35:17.029Z,4.70
2022-11-17T11:38:03.605Z,4.30
2022-11-17T11:40:49.697Z,4.70
2022-11-17T11:43:36.375Z,4.80
2022-11-17T11:46:19.849Z,3.90
2022-11-17T11:48:49.697Z,3.40
2022-11-17T11:51:33.309Z,4.30
2022-11-17T11:54:09.449Z,5.20
2022-11-17T11:56:46.040Z,5.20
2022-11-17T11:59:24.668Z,4.80
2022-11-17T12:01:59.644Z,4.90
2022-11-17T12:04:55.739Z,4.40
2022-11-17T12:07:42.305Z,4.20
2022-11-17T12:10:20.949Z,4.20
2022-11-17T12:12:49.574Z,3.90
2022-11-17T12:15:20.297Z,4.70
2022-11-17T12:18:12.628Z,4.20
2022-11-17T12:21:01.241Z,6.00
2022-11-17T12:23:47.659Z,3.70
2022-11-17T12:26:28.094Z,4.00
2022-11-17T12:29:28.691Z,3.90
2022-11-17T12:32:01.939Z,4.00
2022-11-17T12:34:36.758Z,4.80
2022-11-17T12:37:10.378Z,4.10
2022-11-17T12:39:58.584Z,3.70
2022-11-17T12:42:28.083Z,4.20
2022-11-17T12:44:56.587Z,3.60
2022-11-17T12:47:27.319Z,4.10
2022-11-17T12:50:37.458Z,3.60
2022-11-17T12:53:18.272Z,4.00
2022-11-17T12:56:07.712Z,3.40
2022-11-17T12:58:57.161Z,3.80
2022-11-17T13:01:55.601Z,3.50
2022-11-17T13:04:49.803Z,3.30
2022-11-17T13:07:25.783Z,4.20
2022-11-17T13:09:59.029Z,7.10
2022-11-17T13:12:29.077Z,4.90
2022-11-17T13:14:58.792Z,4.10
2022-11-17T13:17:32.659Z,4.00
2022-11-17T13:20:05.487Z,4.00
2022-11-17T13:22:36.482Z,3.70
2022-11-17T13:25:23.255Z,4.10
2022-11-17T13:27:57.207Z,3.40
2022-11-17T13:30:31.416Z,3.30
2022-11-17T13:33:03.864Z,3.90
2022-11-17T13:35:36.175Z,3.40
2022-11-17T13:38:26.631Z,3.80
2022-11-17T13:40:54.397Z,3.30
2022-11-17T13:43:24.384Z,3.90
2022-11-17T13:45:54.732Z,4.70
2022-11-17T13:48:39.944Z,3.40
2022-11-17T13:51:42.113Z,3.20
2022-11-17T13:54:13.167Z,3.30
2022-11-17T13:56:53.834Z,4.00
2022-11-17T13:59:24.071Z,3.70
2022-11-17T14:02:24.181Z,3.20
2022-11-17T14:05:10.731Z,3.40
2022-11-17T14:07:39.812Z,3.20
2022-11-17T14:10:31.724Z,3.40
2022-11-17T14:13:02.788Z,4.00
2022-11-17T14:15:34.508Z,3.40
2022-11-17T14:18:17.469Z,3.70
2022-11-17T14:20:45.105Z,3.20
2022-11-17T14:23:13.273Z,3.20
2022-11-17T14:25:43.510Z,3.30
2022-11-17T14:28:16.996Z,3.70
2022-11-17T14:30:49.548Z,3.40
2022-11-17T14:33:17.522Z,3.10
2022-11-17T14:35:48.150Z,3.70
2022-11-17T14:38:19.112Z,4.00
2022-11-17T14:40:49.253Z,4.00
2022-11-17T14:43:18.319Z,3.10
2022-11-17T14:45:46.182Z,3.00
2022-11-17T14:48:18.828Z,3.10
2022-11-17T14:50:48.164Z,2.90
2022-11-17T14:53:15.799Z,3.20
2022-11-17T14:55:43.334Z,3.40
2022-11-17T14:58:10.911Z,3.70
2022-11-17T15:00:38.451Z,3.10
2022-11-17T15:03:06.177Z,3.20
2022-11-17T15:05:33.908Z,4.50
2022-11-17T15:08:01.467Z,199.10
2022-11-17T15:10:29.013Z,224.90
2022-11-17T15:12:56.569Z,229.70
2022-11-17T15:15:24.187Z,76.90
2022-11-17T15:17:51.735Z,22.80
2022-11-17T15:20:19.431Z,7.90
2022-11-17T15:22:46.995Z,6.90
2022-11-17T15:25:14.539Z,35.20
2022-11-17T15:27:42.151Z,105.40
2022-11-17T15:30:11.091Z,217.40
2022-11-17T15:32:38.667Z,200.30
2022-11-17T15:35:06.730Z,84.20
2022-11-17T15:37:34.295Z,81.00
2022-11-17T15:40:02.102Z,73.70
2022-11-17T15:42:29.654Z,19.60
2022-11-17T15:44:57.225Z,22.50
2022-11-17T15:47:24.846Z,17.00
2022-11-17T15:49:58.381Z,14.40
2022-11-17T15:52:41.968Z,8.90
2022-11-17T15:55:14.252Z,9.10
2022-11-17T15:57:41.788Z,18.70
2022-11-17T16:00:10.317Z,6.60
2022-11-17T16:02:40.406Z,5.20
2022-11-17T16:05:08.205Z,6.10
2022-11-17T16:07:35.949Z,5.50
2022-11-17T16:10:03.833Z,6.10
2022-11-17T16:12:31.488Z,12.40
2022-11-17T16:14:59.051Z,9.00
2022-11-17T16:17:26.615Z,10.00
2022-11-17T16:19:54.287Z,16.40
2022-11-17T16:22:21.905Z,22.30
2022-11-17T16:24:49.482Z,87.00
2022-11-17T16:27:17.069Z,308.50
2022-11-17T16:29:44.621Z,333.20
2022-11-17T16:32:12.214Z,403.90
2022-11-17T16:34:41.444Z,246.50
2022-11-17T16:37:09.054Z,122.30
2022-11-17T16:39:36.674Z,95.90
2022-11-17T16:42:04.255Z,38.30
2022-11-17T16:44:31.906Z,20.50
2022-11-17T16:46:59.597Z,11.00
2022-11-17T16:49:27.187Z,13.10
2022-11-17T16:51:54.889Z,9.00
2022-11-17T16:54:22.553Z,5.40
2022-11-17T16:56:51.407Z,7.40
2022-11-17T16:59:19.713Z,5.30
2022-11-17T17:01:47.697Z,22.70
2022-11-17T17:04:15.699Z,277.60
2022-11-17T17:06:45.823Z,321.10
2022-11-17T17:09:15.372Z,253.80
2022-11-17T17:11:43.359Z,230.70
2022-11-17T17:14:14.241Z,228.90
2022-11-17T17:16:42.823Z,312.50
2022-11-17T17:19:12.450Z,119.70
2022-11-17T17:21:41.317Z,77.10
2022-11-17T17:24:09.858Z,68.70
2022-11-17T17:26:40.018Z,57.30
2022-11-17T17:29:08.161Z,22.20
2022-11-17T17:31:38.601Z,162.30
2022-11-17T17:34:08.315Z,456.50
2022-11-17T17:36:37.214Z,140.90
2022-11-17T17:39:05.389Z,133.60
2022-11-17T17:41:38.083Z,49.60
2022-11-17T17:44:07.974Z,10.20
2022-11-17T17:46:37.991Z,12.70
2022-11-17T17:49:06.707Z,18.80
2022-11-17T17:51:39.862Z,30.10
2022-11-17T17:54:10.102Z,204.50
2022-11-17T17:56:37.664Z,152.10
2022-11-17T17:59:05.226Z,119.70
2022-11-17T18:01:37.468Z,310.50
2022-11-17T18:04:05.382Z,336.70
2022-11-17T18:06:37.943Z,73.30
2022-11-17T18:09:07.761Z,16.80
2022-11-17T18:11:35.706Z,17.00
2022-11-17T18:14:04.235Z,11.40
2022-11-17T18:16:33.714Z,8.80
2022-11-17T18:19:04.217Z,9.20
2022-11-17T18:21:32.683Z,10.10
2022-11-17T18:24:01.975Z,11.40
2022-11-17T18:26:35.351Z,13.70
2022-11-17T18:29:09.192Z,13.70
2022-11-17T18:31:37.282Z,12.10
2022-11-17T18:34:15.318Z,28.80
2022-11-17T18:36:42.852Z,57.00
2022-11-17T18:39:10.750Z,26.50
2022-11-17T18:41:38.519Z,18.10
2022-11-17T18:44:06.055Z,34.90
2022-11-17T18:46:33.804Z,36.80
2022-11-17T18:49:01.488Z,66.00
2022-11-17T18:51:31.518Z,54.70
2022-11-17T18:54:01.066Z,56.00
2022-11-17T18:56:34.534Z,47.10
2022-11-17T18:59:03.014Z,37.90
2022-11-17T19:01:30.804Z,25.10
2022-11-17T19:04:01.028Z,54.60
2022-11-17T19:06:29.815Z,35.90
2022-11-17T19:08:59.612Z,14.90
2022-11-17T19:11:30.762Z,15.40
2022-11-17T19:14:02.252Z,20.00
2022-11-17T19:16:31.803Z,20.50
2022-11-17T19:18:59.604Z,34.00
2022-11-17T19:21:29.380Z,36.80
2022-11-17T19:23:58.958Z,45.40
2022-11-17T19:26:29.108Z,25.40
2022-11-17T19:29:15.527Z,15.10
2022-11-17T19:31:45.566Z,12.10
2022-11-17T19:34:14.479Z,11.40
2022-11-17T19:36:42.142Z,11.00
2022-11-17T19:39:12.084Z,14.00
2022-11-17T19:41:39.779Z,14.20
2022-11-17T19:44:08.899Z,13.10
2022-11-17T19:46:37.609Z,12.20
2022-11-17T19:49:07.650Z,15.60
2022-11-17T19:51:41.182Z,22.30
2022-11-17T19:54:11.097Z,38.40
2022-11-17T19:56:38.871Z,30.00
2022-11-17T19:59:08.666Z,21.20
2022-11-17T20:01:38.923Z,15.70
2022-11-17T20:04:07.413Z,13.50
2022-11-17T20:06:37.566Z,13.00
2022-11-17T20:09:11.205Z,12.10
2022-11-17T20:11:39.740Z,12.60
2022-11-17T20:14:07.429Z,15.70
2022-11-17T20:16:36.670Z,12.60
2022-11-17T20:19:04.359Z,9.50
2022-11-17T20:21:32.218Z,10.40
2022-11-17T20:24:01.104Z,13.20
2022-11-17T20:26:31.816Z,21.30
2022-11-17T20:29:00.518Z,15.50
2022-11-17T20:31:30.311Z,13.90
2022-11-17T20:34:00.580Z,12.60
2022-11-17T20:36:29.935Z,12.30
2022-11-17T20:39:00.493Z,18.10
2022-11-17T20:41:29.348Z,20.90
2022-11-17T20:43:58.650Z,19.10
2022-11-17T20:46:26.804Z,14.90
2022-11-17T20:48:54.870Z,13.90
2022-11-17T20:51:24.427Z,20.20
2022-11-17T20:53:52.381Z,18.90
2022-11-17T20:56:21.084Z,12.90
2022-11-17T20:58:48.774Z,11.70
2022-11-17T21:01:19.089Z,11.50
2022-11-17T21:03:47.414Z,13.10
2022-11-17T21:06:16.093Z,12.50
2022-11-17T21:08:44.995Z,12.00
2022-11-17T21:11:30.493Z,13.10
2022-11-17T21:13:58.478Z,12.30
2022-11-17T21:16:26.066Z,12.00
2022-11-17T21:18:54.349Z,11.10
2022-11-17T21:21:22.079Z,10.50
2022-11-17T21:23:53.931Z,11.50
2022-11-17T21:26:23.037Z,11.10
2022-11-17T21:28:51.448Z,10.50
2022-11-17T21:31:23.439Z,10.70
2022-11-17T21:33:59.626Z,10.10
2022-11-17T21:36:29.561Z,11.60
2022-11-17T21:38:57.992Z,11.10
2022-11-17T21:41:30.784Z,10.20
2022-11-17T21:44:00.380Z,11.10
2022-11-17T21:46:30.199Z,12.60
2022-11-17T21:48:59.980Z,11.80
2022-11-17T21:51:33.731Z,11.70
2022-11-17T21:54:04.391Z,11.50
2022-11-17T21:56:32.666Z,10.60
2022-11-17T21:59:05.836Z,10.50
2022-11-17T22:01:34.698Z,10.40
2022-11-17T22:04:02.715Z,9.90
2022-11-17T22:06:30.523Z,10.70
2022-11-17T22:08:59.609Z,10.30
2022-11-17T22:11:36.903Z,9.40
2022-11-17T22:14:16.279Z,10.80
2022-11-17T22:16:46.868Z,10.00
2022-11-17T22:19:16.209Z,9.90
2022-11-17T22:21:44.709Z,10.20
2022-11-17T22:24:13.007Z,9.10
2022-11-17T22:26:43.341Z,10.00
2022-11-17T22:29:14.498Z,10.30
2022-11-17T22:31:42.347Z,10.00
2022-11-17T22:34:11.032Z,9.80
2022-11-17T22:36:39.016Z,10.20
2022-11-17T22:39:06.881Z,9.80
2022-11-17T22:41:34.929Z,9.10
2022-11-17T22:44:02.784Z,9.60
2022-11-17T22:46:30.395Z,8.50
2022-11-17T22:48:58.849Z,9.40
2022-11-17T22:51:43.367Z,9.00
2022-11-17T22:54:11.306Z,8.20
2022-11-17T22:56:39.211Z,7.60
2022-11-17T22:59:07.003Z,8.60
2022-11-17T23:01:35.219Z,8.50
2022-11-17T23:04:03.236Z,7.90
2022-11-17T23:06:30.855Z,8.70
2022-11-17T23:08:58.868Z,8.60
2022-11-17T23:11:38.477Z,7.70
2022-11-17T23:14:09.446Z,7.50
2022-11-17T23:16:38.219Z,7.80
2022-11-17T23:19:06.812Z,8.60
2022-11-17T23:21:34.471Z,8.20
2022-11-17T23:24:02.217Z,7.40
2022-11-17T23:26:29.850Z,7.70
2022-11-17T23:28:58.161Z,8.00
2022-11-17T23:31:27.813Z,7.80
2022-11-17T23:33:56.175Z,7.60
2022-11-17T23:36:24.151Z,7.90
2022-11-17T23:38:52.486Z,7.20
2022-11-17T23:41:21.091Z,7.30
2022-11-17T23:43:53.947Z,6.70
2022-11-17T23:46:25.202Z,6.30
2022-11-17T23:48:54.141Z,6.40
2022-11-17T23:51:24.433Z,7.70
2022-11-17T23:53:52.534Z,8.30
2022-11-17T23:56:20.724Z,7.60
2022-11-17T23:58:49.260Z,7.50
